sensor_id;sensor_type;location;lat;lon;timestamp;temperature;humidity
74537;SHT31;63013;51.104;-115.370;2022-09-25T00:01:27;24.30;39.29
74537;SHT31;63013;51.104;-115.370;2022-09-25T00:03:57;24.31;39.29
74537;SHT31;63013;51.104;-115.370;2022-09-25T00:06:26;24.31;39.30
74537;SHT31;63013;51.104;-115.370;2022-09-25T00:08:55;24.31;39.38
74537;SHT31;63013;51.104;-115.370;2022-09-25T00:11:25;24.31;39.39
74537;SHT31;63013;51.104;-115.370;2022-09-25T00:13:58;24.31;39.44
74537;SHT31;63013;51.104;-115.370;2022-09-25T00:16:27;24.30;39.50
74537;SHT31;63013;51.104;-115.370;2022-09-25T00:18:57;24.29;39.60
74537;SHT31;63013;51.104;-115.370;2022-09-25T00:22:02;24.29;39.66
74537;SHT31;63013;51.104;-115.370;2022-09-25T00:24:30;24.28;39.70
74537;SHT31;63013;51.104;-115.370;2022-09-25T00:26:57;24.28;39.74
74537;SHT31;63013;51.104;-115.370;2022-09-25T00:29:26;24.27;39.82
74537;SHT31;63013;51.104;-115.370;2022-09-25T00:31:55;24.26;39.90
74537;SHT31;63013;51.104;-115.370;2022-09-25T00:34:22;24.25;40.00
74537;SHT31;63013;51.104;-115.370;2022-09-25T00:36:49;24.26;40.07
74537;SHT31;63013;51.104;-115.370;2022-09-25T00:39:16;24.25;40.13
74537;SHT31;63013;51.104;-115.370;2022-09-25T00:41:43;24.24;40.11
74537;SHT31;63013;51.104;-115.370;2022-09-25T00:50:50;24.21;40.41
74537;SHT31;63013;51.104;-115.370;2022-09-25T00:53:30;24.20;40.50
74537;SHT31;63013;51.104;-115.370;2022-09-25T00:56:08;24.21;40.55
74537;SHT31;63013;51.104;-115.370;2022-09-25T00:58:39;24.20;40.63
74537;SHT31;63013;51.104;-115.370;2022-09-25T01:01:10;24.19;40.68
74537;SHT31;63013;51.104;-115.370;2022-09-25T01:03:39;24.18;40.71
74537;SHT31;63013;51.104;-115.370;2022-09-25T01:06:07;24.17;40.79
74537;SHT31;63013;51.104;-115.370;2022-09-25T01:08:36;24.17;40.85
74537;SHT31;63013;51.104;-115.370;2022-09-25T01:11:05;24.15;40.90
74537;SHT31;63013;51.104;-115.370;2022-09-25T01:13:32;24.14;40.94
74537;SHT31;63013;51.104;-115.370;2022-09-25T01:16:05;24.14;41.00
74537;SHT31;63013;51.104;-115.370;2022-09-25T01:22:38;24.11;41.11
74537;SHT31;63013;51.104;-115.370;2022-09-25T01:25:26;24.09;41.20
74537;SHT31;63013;51.104;-115.370;2022-09-25T01:31:03;24.06;41.29
74537;SHT31;63013;51.104;-115.370;2022-09-25T01:33:44;24.06;41.30
74537;SHT31;63013;51.104;-115.370;2022-09-25T01:39:10;24.03;41.42
74537;SHT31;63013;51.104;-115.370;2022-09-25T01:42:00;24.02;41.47
74537;SHT31;63013;51.104;-115.370;2022-09-25T01:44:53;24.01;41.51
74537;SHT31;63013;51.104;-115.370;2022-09-25T01:47:34;24.00;41.57
74537;SHT31;63013;51.104;-115.370;2022-09-25T01:50:12;23.98;41.62
74537;SHT31;63013;51.104;-115.370;2022-09-25T01:52:56;23.99;41.69
74537;SHT31;63013;51.104;-115.370;2022-09-25T01:55:30;23.96;41.72
74537;SHT31;63013;51.104;-115.370;2022-09-25T01:58:12;23.97;41.77
74537;SHT31;63013;51.104;-115.370;2022-09-25T02:00:50;23.94;41.81
74537;SHT31;63013;51.104;-115.370;2022-09-25T02:03:31;23.94;41.85
74537;SHT31;63013;51.104;-115.370;2022-09-25T02:06:08;23.93;41.89
74537;SHT31;63013;51.104;-115.370;2022-09-25T02:08:54;23.91;41.91
74537;SHT31;63013;51.104;-115.370;2022-09-25T02:11:36;23.90;41.97
74537;SHT31;63013;51.104;-115.370;2022-09-25T02:14:11;23.90;42.01
74537;SHT31;63013;51.104;-115.370;2022-09-25T02:16:48;23.88;42.04
74537;SHT31;63013;51.104;-115.370;2022-09-25T02:19:20;23.86;42.09
74537;SHT31;63013;51.104;-115.370;2022-09-25T02:22:09;23.85;42.13
74537;SHT31;63013;51.104;-115.370;2022-09-25T02:24:52;23.83;42.18
74537;SHT31;63013;51.104;-115.370;2022-09-25T02:27:31;23.83;42.20
74537;SHT31;63013;51.104;-115.370;2022-09-25T02:29:58;23.81;42.22
74537;SHT31;63013;51.104;-115.370;2022-09-25T02:32:29;23.81;42.27
74537;SHT31;63013;51.104;-115.370;2022-09-25T02:34:58;23.81;42.33
74537;SHT31;63013;51.104;-115.370;2022-09-25T02:37:25;23.80;42.45
74537;SHT31;63013;51.104;-115.370;2022-09-25T02:39:54;23.79;42.73
74537;SHT31;63013;51.104;-115.370;2022-09-25T02:42:48;23.78;42.82
74537;SHT31;63013;51.104;-115.370;2022-09-25T02:51:51;23.74;43.37
74537;SHT31;63013;51.104;-115.370;2022-09-25T02:58:15;23.70;43.67
74537;SHT31;63013;51.104;-115.370;2022-09-25T03:01:00;23.69;43.67
74537;SHT31;63013;51.104;-115.370;2022-09-25T03:03:31;23.68;43.78
74537;SHT31;63013;51.104;-115.370;2022-09-25T03:06:02;23.68;43.78
74537;SHT31;63013;51.104;-115.370;2022-09-25T03:08:31;23.67;43.79
74537;SHT31;63013;51.104;-115.370;2022-09-25T03:11:09;23.67;43.80
74537;SHT31;63013;51.104;-115.370;2022-09-25T03:13:42;23.65;43.81
74537;SHT31;63013;51.104;-115.370;2022-09-25T03:16:30;23.65;43.80
74537;SHT31;63013;51.104;-115.370;2022-09-25T03:19:25;23.63;43.79
74537;SHT31;63013;51.104;-115.370;2022-09-25T03:21:54;23.62;43.76
74537;SHT31;63013;51.104;-115.370;2022-09-25T03:24:21;23.61;43.74
74537;SHT31;63013;51.104;-115.370;2022-09-25T03:26:48;23.61;43.72
74537;SHT31;63013;51.104;-115.370;2022-09-25T03:29:16;23.58;43.71
74537;SHT31;63013;51.104;-115.370;2022-09-25T03:31:43;23.58;43.70
74537;SHT31;63013;51.104;-115.370;2022-09-25T03:34:10;23.58;43.69
74537;SHT31;63013;51.104;-115.370;2022-09-25T03:36:40;23.57;43.70
74537;SHT31;63013;51.104;-115.370;2022-09-25T03:39:08;23.56;43.70
74537;SHT31;63013;51.104;-115.370;2022-09-25T03:41:35;23.54;43.70
74537;SHT31;63013;51.104;-115.370;2022-09-25T03:44:03;23.54;43.70
74537;SHT31;63013;51.104;-115.370;2022-09-25T03:46:31;23.52;43.70
74537;SHT31;63013;51.104;-115.370;2022-09-25T03:49:00;23.51;43.70
74537;SHT31;63013;51.104;-115.370;2022-09-25T03:51:29;23.50;43.71
74537;SHT31;63013;51.104;-115.370;2022-09-25T03:53:58;23.48;43.72
74537;SHT31;63013;51.104;-115.370;2022-09-25T03:56:26;23.48;43.73
74537;SHT31;63013;51.104;-115.370;2022-09-25T03:58:54;23.46;43.74
74537;SHT31;63013;51.104;-115.370;2022-09-25T04:01:25;23.45;43.78
74537;SHT31;63013;51.104;-115.370;2022-09-25T04:03:53;23.44;43.77
74537;SHT31;63013;51.104;-115.370;2022-09-25T04:06:21;23.44;43.72
74537;SHT31;63013;51.104;-115.370;2022-09-25T04:08:51;23.42;43.74
74537;SHT31;63013;51.104;-115.370;2022-09-25T04:11:19;23.42;43.76
74537;SHT31;63013;51.104;-115.370;2022-09-25T04:13:51;23.41;43.76
74537;SHT31;63013;51.104;-115.370;2022-09-25T04:16:19;23.40;43.80
74537;SHT31;63013;51.104;-115.370;2022-09-25T04:18:47;23.38;43.79
74537;SHT31;63013;51.104;-115.370;2022-09-25T04:21:15;23.38;43.80
74537;SHT31;63013;51.104;-115.370;2022-09-25T04:23:42;23.36;43.80
74537;SHT31;63013;51.104;-115.370;2022-09-25T04:26:29;23.35;43.80
74537;SHT31;63013;51.104;-115.370;2022-09-25T04:28:57;23.34;43.80
74537;SHT31;63013;51.104;-115.370;2022-09-25T04:31:28;23.32;43.80
74537;SHT31;63013;51.104;-115.370;2022-09-25T04:33:57;23.30;43.84
74537;SHT31;63013;51.104;-115.370;2022-09-25T04:36:25;23.30;43.86
74537;SHT31;63013;51.104;-115.370;2022-09-25T04:38:52;23.29;43.85
74537;SHT31;63013;51.104;-115.370;2022-09-25T04:41:19;23.27;43.89
74537;SHT31;63013;51.104;-115.370;2022-09-25T04:43:47;23.26;43.89
74537;SHT31;63013;51.104;-115.370;2022-09-25T04:46:14;23.25;43.90
74537;SHT31;63013;51.104;-115.370;2022-09-25T04:48:45;23.24;43.90
74537;SHT31;63013;51.104;-115.370;2022-09-25T04:51:12;23.24;43.90
74537;SHT31;63013;51.104;-115.370;2022-09-25T04:53:39;23.24;43.90
74537;SHT31;63013;51.104;-115.370;2022-09-25T04:56:07;23.23;43.90
74537;SHT31;63013;51.104;-115.370;2022-09-25T04:58:37;23.21;43.92
74537;SHT31;63013;51.104;-115.370;2022-09-25T05:01:12;23.21;43.91
74537;SHT31;63013;51.104;-115.370;2022-09-25T05:03:42;23.20;43.90
74537;SHT31;63013;51.104;-115.370;2022-09-25T05:06:11;23.19;43.91
74537;SHT31;63013;51.104;-115.370;2022-09-25T05:08:39;23.17;43.92
74537;SHT31;63013;51.104;-115.370;2022-09-25T05:11:06;23.16;43.92
74537;SHT31;63013;51.104;-115.370;2022-09-25T05:13:33;23.15;43.93
74537;SHT31;63013;51.104;-115.370;2022-09-25T05:16:00;23.13;43.95
74537;SHT31;63013;51.104;-115.370;2022-09-25T05:18:28;23.12;43.97
74537;SHT31;63013;51.104;-115.370;2022-09-25T05:20:55;23.11;43.97
74537;SHT31;63013;51.104;-115.370;2022-09-25T05:23:22;23.08;43.98
74537;SHT31;63013;51.104;-115.370;2022-09-25T05:26:31;23.09;44.00
74537;SHT31;63013;51.104;-115.370;2022-09-25T05:28:40;23.07;44.01
74537;SHT31;63013;51.104;-115.370;2022-09-25T05:31:06;23.06;44.03
74537;SHT31;63013;51.104;-115.370;2022-09-25T05:33:35;23.05;44.03
74537;SHT31;63013;51.104;-115.370;2022-09-25T05:36:03;23.03;44.05
74537;SHT31;63013;51.104;-115.370;2022-09-25T05:38:32;23.02;44.08
74537;SHT31;63013;51.104;-115.370;2022-09-25T05:41:04;23.00;44.10
74537;SHT31;63013;51.104;-115.370;2022-09-25T05:43:37;22.98;44.10
74537;SHT31;63013;51.104;-115.370;2022-09-25T05:46:07;22.98;44.10
74537;SHT31;63013;51.104;-115.370;2022-09-25T05:48:35;22.97;44.11
74537;SHT31;63013;51.104;-115.370;2022-09-25T05:51:06;22.95;44.14
74537;SHT31;63013;51.104;-115.370;2022-09-25T05:53:34;22.93;44.14
74537;SHT31;63013;51.104;-115.370;2022-09-25T05:56:02;22.92;44.15
74537;SHT31;63013;51.104;-115.370;2022-09-25T05:58:30;22.92;44.15
74537;SHT31;63013;51.104;-115.370;2022-09-25T06:01:03;22.90;44.17
74537;SHT31;63013;51.104;-115.370;2022-09-25T06:03:31;22.89;44.19
74537;SHT31;63013;51.104;-115.370;2022-09-25T06:05:59;22.88;44.20
74537;SHT31;63013;51.104;-115.370;2022-09-25T06:08:27;22.87;44.20
74537;SHT31;63013;51.104;-115.370;2022-09-25T06:10:56;22.86;44.20
74537;SHT31;63013;51.104;-115.370;2022-09-25T06:13:27;22.84;44.19
74537;SHT31;63013;51.104;-115.370;2022-09-25T06:15:57;22.84;44.21
74537;SHT31;63013;51.104;-115.370;2022-09-25T06:18:25;22.81;44.24
74537;SHT31;63013;51.104;-115.370;2022-09-25T06:20:58;22.79;44.22
74537;SHT31;63013;51.104;-115.370;2022-09-25T06:23:27;22.78;44.24
74537;SHT31;63013;51.104;-115.370;2022-09-25T06:25:59;22.77;44.24
74537;SHT31;63013;51.104;-115.370;2022-09-25T06:28:31;22.76;44.29
74537;SHT31;63013;51.104;-115.370;2022-09-25T06:30:59;22.74;44.30
74537;SHT31;63013;51.104;-115.370;2022-09-25T06:33:28;22.73;44.30
74537;SHT31;63013;51.104;-115.370;2022-09-25T06:35:56;22.72;44.31
74537;SHT31;63013;51.104;-115.370;2022-09-25T06:38:26;22.69;44.31
74537;SHT31;63013;51.104;-115.370;2022-09-25T06:40:53;22.69;44.31
74537;SHT31;63013;51.104;-115.370;2022-09-25T06:43:21;22.68;44.33
74537;SHT31;63013;51.104;-115.370;2022-09-25T06:45:48;22.68;44.37
74537;SHT31;63013;51.104;-115.370;2022-09-25T06:48:16;22.66;44.32
74537;SHT31;63013;51.104;-115.370;2022-09-25T06:50:46;22.65;44.31
74537;SHT31;63013;51.104;-115.370;2022-09-25T06:53:16;22.64;44.35
74537;SHT31;63013;51.104;-115.370;2022-09-25T06:55:46;22.63;44.33
74537;SHT31;63013;51.104;-115.370;2022-09-25T06:58:15;22.62;44.33
74537;SHT31;63013;51.104;-115.370;2022-09-25T07:00:45;22.60;44.36
74537;SHT31;63013;51.104;-115.370;2022-09-25T07:03:16;22.59;44.39
74537;SHT31;63013;51.104;-115.370;2022-09-25T07:06:03;22.58;44.39
74537;SHT31;63013;51.104;-115.370;2022-09-25T07:08:32;22.57;44.39
74537;SHT31;63013;51.104;-115.370;2022-09-25T07:11:00;22.57;44.40
74537;SHT31;63013;51.104;-115.370;2022-09-25T07:13:28;22.55;44.40
74537;SHT31;63013;51.104;-115.370;2022-09-25T07:16:00;22.53;44.40
74537;SHT31;63013;51.104;-115.370;2022-09-25T07:18:32;22.51;44.42
74537;SHT31;63013;51.104;-115.370;2022-09-25T07:21:01;22.50;44.47
74537;SHT31;63013;51.104;-115.370;2022-09-25T07:23:33;22.49;44.48
74537;SHT31;63013;51.104;-115.370;2022-09-25T07:26:05;22.48;44.50
74537;SHT31;63013;51.104;-115.370;2022-09-25T07:28:35;22.47;44.50
74537;SHT31;63013;51.104;-115.370;2022-09-25T07:31:20;22.45;44.50
74537;SHT31;63013;51.104;-115.370;2022-09-25T07:33:51;22.45;44.50
74537;SHT31;63013;51.104;-115.370;2022-09-25T07:36:19;22.44;44.50
74537;SHT31;63013;51.104;-115.370;2022-09-25T07:38:50;22.43;44.50
74537;SHT31;63013;51.104;-115.370;2022-09-25T07:41:18;22.42;44.52
74537;SHT31;63013;51.104;-115.370;2022-09-25T07:43:51;22.41;44.50
74537;SHT31;63013;51.104;-115.370;2022-09-25T07:46:23;22.40;44.51
74537;SHT31;63013;51.104;-115.370;2022-09-25T07:48:52;22.39;44.52
74537;SHT31;63013;51.104;-115.370;2022-09-25T07:51:20;22.38;44.50
74537;SHT31;63013;51.104;-115.370;2022-09-25T07:53:48;22.37;44.50
74537;SHT31;63013;51.104;-115.370;2022-09-25T07:56:15;22.36;44.51
74537;SHT31;63013;51.104;-115.370;2022-09-25T07:58:42;22.35;44.54
74537;SHT31;63013;51.104;-115.370;2022-09-25T08:01:11;22.34;44.54
74537;SHT31;63013;51.104;-115.370;2022-09-25T08:03:38;22.33;44.54
74537;SHT31;63013;51.104;-115.370;2022-09-25T08:06:07;22.32;44.57
74537;SHT31;63013;51.104;-115.370;2022-09-25T08:08:38;22.32;44.57
74537;SHT31;63013;51.104;-115.370;2022-09-25T08:11:08;22.31;44.60
74537;SHT31;63013;51.104;-115.370;2022-09-25T08:13:41;22.29;44.58
74537;SHT31;63013;51.104;-115.370;2022-09-25T08:16:13;22.28;44.60
74537;SHT31;63013;51.104;-115.370;2022-09-25T08:18:43;22.26;44.60
74537;SHT31;63013;51.104;-115.370;2022-09-25T08:21:12;22.24;44.60
74537;SHT31;63013;51.104;-115.370;2022-09-25T08:23:49;22.24;44.60
74537;SHT31;63013;51.104;-115.370;2022-09-25T08:26:19;22.22;44.60
74537;SHT31;63013;51.104;-115.370;2022-09-25T08:28:47;22.21;44.64
74537;SHT31;63013;51.104;-115.370;2022-09-25T08:31:16;22.20;44.64
74537;SHT31;63013;51.104;-115.370;2022-09-25T08:33:44;22.17;44.63
74537;SHT31;63013;51.104;-115.370;2022-09-25T08:36:14;22.17;44.66
74537;SHT31;63013;51.104;-115.370;2022-09-25T08:38:41;22.15;44.68
74537;SHT31;63013;51.104;-115.370;2022-09-25T08:41:30;22.13;44.70
74537;SHT31;63013;51.104;-115.370;2022-09-25T08:44:24;22.12;44.70
74537;SHT31;63013;51.104;-115.370;2022-09-25T08:47:10;22.10;44.70
74537;SHT31;63013;51.104;-115.370;2022-09-25T08:50:14;22.09;44.72
74537;SHT31;63013;51.104;-115.370;2022-09-25T08:52:52;22.09;44.71
74537;SHT31;63013;51.104;-115.370;2022-09-25T08:55:52;22.07;44.78
74537;SHT31;63013;51.104;-115.370;2022-09-25T08:58:39;22.06;44.78
74537;SHT31;63013;51.104;-115.370;2022-09-25T09:01:24;22.05;44.77
74537;SHT31;63013;51.104;-115.370;2022-09-25T09:04:18;22.03;44.78
74537;SHT31;63013;51.104;-115.370;2022-09-25T09:07:11;22.02;44.79
74537;SHT31;63013;51.104;-115.370;2022-09-25T09:10:03;22.00;44.79
74537;SHT31;63013;51.104;-115.370;2022-09-25T09:13:07;21.98;44.80
74537;SHT31;63013;51.104;-115.370;2022-09-25T09:16:03;21.97;44.80
74537;SHT31;63013;51.104;-115.370;2022-09-25T09:18:47;21.95;44.83
74537;SHT31;63013;51.104;-115.370;2022-09-25T09:21:32;21.94;44.82
74537;SHT31;63013;51.104;-115.370;2022-09-25T09:24:28;21.92;44.84
74537;SHT31;63013;51.104;-115.370;2022-09-25T09:27:17;21.91;44.86
74537;SHT31;63013;51.104;-115.370;2022-09-25T09:32:55;21.89;44.89
74537;SHT31;63013;51.104;-115.370;2022-09-25T09:44:59;21.84;44.90
74537;SHT31;63013;51.104;-115.370;2022-09-25T09:51:09;21.82;44.90
74537;SHT31;63013;51.104;-115.370;2022-09-25T09:54:02;21.81;44.90
74537;SHT31;63013;51.104;-115.370;2022-09-25T09:56:53;21.80;44.90
74537;SHT31;63013;51.104;-115.370;2022-09-25T09:59:24;21.79;44.90
74537;SHT31;63013;51.104;-115.370;2022-09-25T10:05:00;21.77;44.90
74537;SHT31;63013;51.104;-115.370;2022-09-25T10:07:37;21.77;44.90
74537;SHT31;63013;51.104;-115.370;2022-09-25T10:10:09;21.77;44.90
74537;SHT31;63013;51.104;-115.370;2022-09-25T10:12:42;21.76;44.90
74537;SHT31;63013;51.104;-115.370;2022-09-25T10:15:27;21.75;44.89
74537;SHT31;63013;51.104;-115.370;2022-09-25T10:18:21;21.74;44.90
74537;SHT31;63013;51.104;-115.370;2022-09-25T10:21:09;21.74;44.89
74537;SHT31;63013;51.104;-115.370;2022-09-25T10:24:08;21.74;44.87
74537;SHT31;63013;51.104;-115.370;2022-09-25T10:26:56;21.73;44.90
74537;SHT31;63013;51.104;-115.370;2022-09-25T10:30:03;21.72;44.90
74537;SHT31;63013;51.104;-115.370;2022-09-25T10:32:45;21.70;44.88
74537;SHT31;63013;51.104;-115.370;2022-09-25T10:35:44;21.68;44.87
74537;SHT31;63013;51.104;-115.370;2022-09-25T10:41:12;21.65;44.90
74537;SHT31;63013;51.104;-115.370;2022-09-25T10:43:57;21.65;44.90
74537;SHT31;63013;51.104;-115.370;2022-09-25T10:46:28;21.62;44.90
74537;SHT31;63013;51.104;-115.370;2022-09-25T10:49:23;21.60;44.91
74537;SHT31;63013;51.104;-115.370;2022-09-25T10:52:12;21.59;44.91
74537;SHT31;63013;51.104;-115.370;2022-09-25T10:54:44;21.59;44.94
74537;SHT31;63013;51.104;-115.370;2022-09-25T10:57:16;21.56;44.95
74537;SHT31;63013;51.104;-115.370;2022-09-25T11:00:04;21.55;45.00
74537;SHT31;63013;51.104;-115.370;2022-09-25T11:03:01;21.54;45.00
74537;SHT31;63013;51.104;-115.370;2022-09-25T11:05:34;21.53;45.00
74537;SHT31;63013;51.104;-115.370;2022-09-25T11:08:03;21.51;45.01
74537;SHT31;63013;51.104;-115.370;2022-09-25T11:10:34;21.50;45.00
74537;SHT31;63013;51.104;-115.370;2022-09-25T11:13:21;21.49;45.02
74537;SHT31;63013;51.104;-115.370;2022-09-25T11:15:59;21.48;45.01
74537;SHT31;63013;51.104;-115.370;2022-09-25T11:21:39;21.45;45.10
74537;SHT31;63013;51.104;-115.370;2022-09-25T11:30:09;21.40;45.09
74537;SHT31;63013;51.104;-115.370;2022-09-25T11:35:41;21.38;45.10
74537;SHT31;63013;51.104;-115.370;2022-09-25T11:41:46;21.34;45.14
74537;SHT31;63013;51.104;-115.370;2022-09-25T11:44:39;21.33;45.14
74537;SHT31;63013;51.104;-115.370;2022-09-25T11:50:15;21.31;45.19
74537;SHT31;63013;51.104;-115.370;2022-09-25T11:52:56;21.29;45.20
74537;SHT31;63013;51.104;-115.370;2022-09-25T11:56:38;21.27;45.20
74537;SHT31;63013;51.104;-115.370;2022-09-25T11:59:12;21.25;45.23
74537;SHT31;63013;51.104;-115.370;2022-09-25T12:01:58;21.24;45.27
74537;SHT31;63013;51.104;-115.370;2022-09-25T12:17:33;21.13;45.34
74537;SHT31;63013;51.104;-115.370;2022-09-25T12:23:59;21.11;45.40
74537;SHT31;63013;51.104;-115.370;2022-09-25T12:26:50;21.08;45.40
74537;SHT31;63013;51.104;-115.370;2022-09-25T12:30:20;21.08;45.40
74537;SHT31;63013;51.104;-115.370;2022-09-25T12:32:57;21.06;45.40
74537;SHT31;63013;51.104;-115.370;2022-09-25T12:35:48;21.05;45.42
74537;SHT31;63013;51.104;-115.370;2022-09-25T12:41:46;21.01;45.48
74537;SHT31;63013;51.104;-115.370;2022-09-25T12:44:41;21.01;45.49
74537;SHT31;63013;51.104;-115.370;2022-09-25T12:50:12;21.00;45.50
74537;SHT31;63013;51.104;-115.370;2022-09-25T12:52:52;20.98;45.50
74537;SHT31;63013;51.104;-115.370;2022-09-25T12:55:37;20.97;45.51
74537;SHT31;63013;51.104;-115.370;2022-09-25T13:01:46;20.94;45.52
74537;SHT31;63013;51.104;-115.370;2022-09-25T13:04:55;20.93;45.53
74537;SHT31;63013;51.104;-115.370;2022-09-25T13:10:45;20.91;45.53
74537;SHT31;63013;51.104;-115.370;2022-09-25T13:13:28;20.89;45.59
74537;SHT31;63013;51.104;-115.370;2022-09-25T13:16:04;20.87;45.58
74537;SHT31;63013;51.104;-115.370;2022-09-25T13:18:31;20.88;45.62
74537;SHT31;63013;51.104;-115.370;2022-09-25T13:24:00;20.84;45.78
74537;SHT31;63013;51.104;-115.370;2022-09-25T13:26:32;20.83;45.85
74537;SHT31;63013;51.104;-115.370;2022-09-25T13:32:01;20.80;45.99
74537;SHT31;63013;51.104;-115.370;2022-09-25T13:34:41;20.78;46.10
74537;SHT31;63013;51.104;-115.370;2022-09-25T13:37:11;20.77;46.15
74537;SHT31;63013;51.104;-115.370;2022-09-25T13:39:45;20.76;46.20
74537;SHT31;63013;51.104;-115.370;2022-09-25T13:54:23;20.69;46.50
74537;SHT31;63013;51.104;-115.370;2022-09-25T13:56:52;20.67;46.57
74537;SHT31;63013;51.104;-115.370;2022-09-25T13:59:38;20.65;46.59
74537;SHT31;63013;51.104;-115.370;2022-09-25T14:05:14;20.63;46.70
74537;SHT31;63013;51.104;-115.370;2022-09-25T14:07:59;20.62;46.75
74537;SHT31;63013;51.104;-115.370;2022-09-25T14:10:42;20.59;46.82
74537;SHT31;63013;51.104;-115.370;2022-09-25T14:13:14;20.60;46.84
74537;SHT31;63013;51.104;-115.370;2022-09-25T14:15:48;20.59;46.90
74537;SHT31;63013;51.104;-115.370;2022-09-25T14:18:35;20.59;46.95
74537;SHT31;63013;51.104;-115.370;2022-09-25T14:21:08;20.58;46.99
74537;SHT31;63013;51.104;-115.370;2022-09-25T14:23:47;20.57;47.00
74537;SHT31;63013;51.104;-115.370;2022-09-25T14:26:26;20.57;46.99
74537;SHT31;63013;51.104;-115.370;2022-09-25T14:28:55;20.58;47.01
74537;SHT31;63013;51.104;-115.370;2022-09-25T14:46:56;20.50;47.11
74537;SHT31;63013;51.104;-115.370;2022-09-25T14:49:27;20.49;47.14
74537;SHT31;63013;51.104;-115.370;2022-09-25T14:52:13;20.48;47.09
74537;SHT31;63013;51.104;-115.370;2022-09-25T14:54:50;20.46;46.97
74537;SHT31;63013;51.104;-115.370;2022-09-25T14:57:25;20.46;46.99
74537;SHT31;63013;51.104;-115.370;2022-09-25T15:00:01;20.46;47.01
74537;SHT31;63013;51.104;-115.370;2022-09-25T15:02:37;20.47;47.01
74537;SHT31;63013;51.104;-115.370;2022-09-25T15:07:58;20.49;46.94
74537;SHT31;63013;51.104;-115.370;2022-09-25T15:10:39;20.50;46.93
74537;SHT31;63013;51.104;-115.370;2022-09-25T15:13:11;20.50;46.91
74537;SHT31;63013;51.104;-115.370;2022-09-25T15:15:47;20.49;46.90
74537;SHT31;63013;51.104;-115.370;2022-09-25T15:18:40;20.49;46.95
74537;SHT31;63013;51.104;-115.370;2022-09-25T15:21:19;20.49;46.95
74537;SHT31;63013;51.104;-115.370;2022-09-25T15:24:03;20.49;47.00
74537;SHT31;63013;51.104;-115.370;2022-09-25T15:26:59;20.50;47.00
74537;SHT31;63013;51.104;-115.370;2022-09-25T15:29:34;20.52;47.00
74537;SHT31;63013;51.104;-115.370;2022-09-25T15:32:13;20.52;47.00
74537;SHT31;63013;51.104;-115.370;2022-09-25T15:34:45;20.53;47.00
74537;SHT31;63013;51.104;-115.370;2022-09-25T15:37:17;20.53;46.99
74537;SHT31;63013;51.104;-115.370;2022-09-25T15:39:54;20.53;47.00
74537;SHT31;63013;51.104;-115.370;2022-09-25T15:42:25;20.54;47.00
74537;SHT31;63013;51.104;-115.370;2022-09-25T15:44:53;20.53;47.02
74537;SHT31;63013;51.104;-115.370;2022-09-25T15:50:04;20.53;47.09
74537;SHT31;63013;51.104;-115.370;2022-09-25T15:52:47;20.53;47.10
74537;SHT31;63013;51.104;-115.370;2022-09-25T15:55:27;20.52;47.11
74537;SHT31;63013;51.104;-115.370;2022-09-25T15:58:03;20.51;47.11
74537;SHT31;63013;51.104;-115.370;2022-09-25T16:00:37;20.52;47.15
74537;SHT31;63013;51.104;-115.370;2022-09-25T16:03:36;20.53;47.18
74537;SHT31;63013;51.104;-115.370;2022-09-25T16:06:28;20.52;47.20
74537;SHT31;63013;51.104;-115.370;2022-09-25T16:09:08;20.53;47.20
74537;SHT31;63013;51.104;-115.370;2022-09-25T16:15:00;20.50;47.26
74537;SHT31;63013;51.104;-115.370;2022-09-25T16:17:53;20.50;47.38
74537;SHT31;63013;51.104;-115.370;2022-09-25T16:20:33;20.50;47.47
74537;SHT31;63013;51.104;-115.370;2022-09-25T16:23:04;20.50;47.59
74537;SHT31;63013;51.104;-115.370;2022-09-25T16:25:53;20.50;47.59
74537;SHT31;63013;51.104;-115.370;2022-09-25T16:28:25;20.49;47.63
74537;SHT31;63013;51.104;-115.370;2022-09-25T16:31:01;20.50;47.68
74537;SHT31;63013;51.104;-115.370;2022-09-25T16:33:34;20.50;47.67
74537;SHT31;63013;51.104;-115.370;2022-09-25T16:36:13;20.49;47.66
74537;SHT31;63013;51.104;-115.370;2022-09-25T16:38:42;20.48;47.69
74537;SHT31;63013;51.104;-115.370;2022-09-25T16:41:36;20.49;47.73
74537;SHT31;63013;51.104;-115.370;2022-09-25T16:49:24;20.49;47.78
74537;SHT31;63013;51.104;-115.370;2022-09-25T16:51:52;20.49;47.80
74537;SHT31;63013;51.104;-115.370;2022-09-25T16:54:20;20.48;47.76
74537;SHT31;63013;51.104;-115.370;2022-09-25T16:56:55;20.48;47.78
74537;SHT31;63013;51.104;-115.370;2022-09-25T16:59:24;20.51;47.78
74537;SHT31;63013;51.104;-115.370;2022-09-25T17:01:53;20.52;47.80
74537;SHT31;63013;51.104;-115.370;2022-09-25T17:04:26;20.55;47.77
74537;SHT31;63013;51.104;-115.370;2022-09-25T17:07:00;20.55;47.77
74537;SHT31;63013;51.104;-115.370;2022-09-25T17:09:30;20.57;47.70
74537;SHT31;63013;51.104;-115.370;2022-09-25T17:11:58;20.57;47.63
74537;SHT31;63013;51.104;-115.370;2022-09-25T17:14:35;20.58;47.62
74537;SHT31;63013;51.104;-115.370;2022-09-25T17:17:03;20.58;47.62
74537;SHT31;63013;51.104;-115.370;2022-09-25T17:19:30;20.58;47.62
74537;SHT31;63013;51.104;-115.370;2022-09-25T17:22:00;20.58;47.63
74537;SHT31;63013;51.104;-115.370;2022-09-25T17:24:27;20.59;47.66
74537;SHT31;63013;51.104;-115.370;2022-09-25T17:26:54;20.58;47.68
74537;SHT31;63013;51.104;-115.370;2022-09-25T17:29:22;20.58;47.70
74537;SHT31;63013;51.104;-115.370;2022-09-25T17:31:49;20.57;47.66
74537;SHT31;63013;51.104;-115.370;2022-09-25T17:34:33;20.59;47.70
74537;SHT31;63013;51.104;-115.370;2022-09-25T17:37:03;20.57;47.68
74537;SHT31;63013;51.104;-115.370;2022-09-25T17:39:34;20.57;47.68
74537;SHT31;63013;51.104;-115.370;2022-09-25T17:42:01;20.57;47.66
74537;SHT31;63013;51.104;-115.370;2022-09-25T17:44:29;20.58;47.68
74537;SHT31;63013;51.104;-115.370;2022-09-25T17:47:02;20.58;47.60
74537;SHT31;63013;51.104;-115.370;2022-09-25T17:49:30;20.58;47.59
74537;SHT31;63013;51.104;-115.370;2022-09-25T17:51:57;20.59;47.59
74537;SHT31;63013;51.104;-115.370;2022-09-25T17:54:31;20.60;47.62
74537;SHT31;63013;51.104;-115.370;2022-09-25T17:57:01;20.59;47.62
74537;SHT31;63013;51.104;-115.370;2022-09-25T17:59:28;20.60;47.69
74537;SHT31;63013;51.104;-115.370;2022-09-25T18:01:56;20.62;47.68
74537;SHT31;63013;51.104;-115.370;2022-09-25T18:04:24;20.63;47.66